Time;durP1;ratioP1;P1;durP2;ratioP2;P2;SDS_P1;SDS_P2;PMS_P1;PMS_P2;Temp;Humidity;BMP_temperature;BMP_pressure;BME280_temperature;BME280_humidity;BME280_pressure;Samples;Min_cycle;Max_cycle;Signal;HPM_P1;HPM_P2
2022/01/13 00:00:17;;;;;;;60.97;24.65;;;;;;;-1.98;85.75;97818.50;4862420;29;20050;-45
2022/01/13 00:02:45;;;;;;;59.35;25.95;;;;;;;-2.10;86.14;97814.84;4864690;29;20042;-45
2022/01/13 00:05:12;;;;;;;59.92;24.73;;;;;;;-2.38;88.37;97810.53;4877578;29;20055;-43
2022/01/13 00:07:39;;;;;;;65.07;25.30;;;;;;;-1.89;85.66;97803.16;4868452;29;20037;-41
2022/01/13 00:10:07;;;;;;;63.10;26.05;;;;;;;-2.98;90.44;97808.84;4874609;29;20791;-44
2022/01/13 00:12:39;;;;;;;60.58;26.38;;;;;;;-2.94;92.09;97810.88;4875111;29;20049;-43
2022/01/13 00:15:37;;;;;;;60.10;25.55;;;;;;;-2.30;88.43;97804.25;4877390;29;20049;-55
2022/01/13 00:18:03;;;;;;;64.30;25.85;;;;;;;-2.88;90.80;97820.66;4866248;29;20053;-51
2022/01/13 00:20:59;;;;;;;65.03;25.92;;;;;;;-2.09;88.51;97818.31;4865592;29;20128;-42
2022/01/13 00:23:41;;;;;;;65.20;28.10;;;;;;;-1.70;85.88;97812.94;4859708;29;20057;-41
2022/01/13 00:26:18;;;;;;;63.95;28.50;;;;;;;-1.98;86.62;97815.84;4876909;29;20120;-42
2022/01/13 00:28:49;;;;;;;63.85;27.33;;;;;;;-1.78;85.76;97815.81;4869064;29;20056;-42
2022/01/13 00:31:23;;;;;;;62.50;26.40;;;;;;;-2.67;89.98;97827.63;4842812;29;20057;-41
2022/01/13 00:33:54;;;;;;;;;;;;;;;-2.55;89.91;97829.72;4860750;29;20124;-41
2022/01/13 00:36:30;;;;;;;62.40;26.42;;;;;;;-2.54;90.67;97826.03;4859912;29;19953;-46
2022/01/13 00:38:58;;;;;;;62.45;25.40;;;;;;;-2.71;90.52;97836.19;4865533;29;20053;-43
2022/01/13 00:41:29;;;;;;;66.85;25.92;;;;;;;-2.51;89.47;97846.81;4860821;29;20512;-43
2022/01/13 00:43:57;;;;;;;67.45;27.77;;;;;;;-2.39;88.73;97839.91;4869346;29;20140;-43
2022/01/13 00:46:27;;;;;;;66.82;27.42;;;;;;;-1.93;86.62;97836.44;4870457;29;20553;-45
2022/01/13 00:48:56;;;;;;;69.03;26.15;;;;;;;-1.84;85.91;97829.91;4860726;29;20462;-43
2022/01/13 00:51:24;;;;;;;67.05;27.10;;;;;;;-1.84;86.14;97839.72;4871586;29;20056;-45
2022/01/13 00:53:52;;;;;;;64.70;27.85;;;;;;;-1.69;85.51;97846.44;4878430;29;20088;-40
2022/01/13 00:56:19;;;;;;;63.10;27.30;;;;;;;-1.74;85.13;97832.13;4868351;29;20045;-44
2022/01/13 00:58:46;;;;;;;64.53;27.27;;;;;;;-1.76;85.00;97842.94;4873068;29;20068;-46
2022/01/13 01:01:13;;;;;;;64.32;27.13;;;;;;;-1.80;84.81;97839.09;4861955;29;20049;-42
2022/01/13 01:03:41;;;;;;;64.25;28.02;;;;;;;-1.81;84.80;97841.97;4859604;29;20407;-45
2022/01/13 01:06:08;;;;;;;58.80;24.92;;;;;;;-1.93;85.25;97833.78;4862297;29;20048;-42
2022/01/13 01:08:36;;;;;;;66.15;25.52;;;;;;;-2.21;86.51;97826.88;4861058;29;20053;-41
2022/01/13 01:11:04;;;;;;;63.80;26.00;;;;;;;-1.85;85.76;97815.03;4866450;29;20464;-52
2022/01/13 01:13:33;;;;;;;63.63;25.77;;;;;;;-1.79;85.32;97824.78;4868410;29;20488;-44
2022/01/13 01:16:06;;;;;;;61.80;26.52;;;;;;;-1.70;84.50;97826.19;4860314;29;20048;-42
2022/01/13 01:22:13;;;;;;;62.53;26.13;;;;;;;-1.79;85.32;97827.44;4876336;29;20068;-47
2022/01/13 01:24:13;;;;;;;62.53;25.15;;;;;;;-1.77;85.16;97833.38;4870502;29;20049;-45
2022/01/13 01:27:05;;;;;;;60.40;24.98;;;;;;;-1.66;84.41;97832.75;4863516;29;20041;-46
2022/01/13 01:29:39;;;;;;;68.05;25.88;;;;;;;-1.62;84.38;97840.28;4875598;29;20057;-44
2022/01/13 01:32:10;;;;;;;59.42;25.05;;;;;;;-1.62;84.62;97837.63;4867473;29;20053;-48
2022/01/13 01:37:14;;;;;;;61.70;26.30;;;;;;;-1.59;83.90;97839.84;4860179;29;20132;-45
2022/01/13 01:39:44;;;;;;;64.03;25.70;;;;;;;-1.72;85.43;97852.16;4862307;29;20080;-44
2022/01/13 01:42:11;;;;;;;70.15;25.85;;;;;;;-1.65;85.04;97831.72;4870345;29;20167;-45
2022/01/13 01:44:43;;;;;;;58.75;24.95;;;;;;;-1.61;84.44;97840.06;4864285;29;20057;-46
2022/01/13 01:47:13;;;;;;;64.70;27.95;;;;;;;-1.66;84.64;97832.75;4869380;29;20052;-41
2022/01/13 01:49:43;;;;;;;64.10;24.60;;;;;;;-1.68;85.16;97829.47;4868118;29;20053;-47
2022/01/13 01:52:13;;;;;;;68.53;25.95;;;;;;;-1.57;84.38;97829.84;4865743;29;20048;-47
2022/01/13 01:54:40;;;;;;;62.10;26.13;;;;;;;-1.78;85.31;97839.69;4879054;29;20056;-45
2022/01/13 01:57:08;;;;;;;59.35;25.70;;;;;;;-1.86;86.15;97845.22;4879608;29;20049;-42
2022/01/13 01:59:38;;;;;;;62.38;25.38;;;;;;;-2.48;89.03;97828.69;4866121;29;20045;-45
2022/01/13 02:02:07;;;;;;;61.55;25.38;;;;;;;-1.94;86.64;97838.28;4872552;29;20084;-46
2022/01/13 02:04:36;;;;;;;67.15;27.20;;;;;;;-2.54;89.41;97831.31;4862035;29;20136;-43
2022/01/13 02:07:05;;;;;;;65.18;25.50;;;;;;;-2.33;89.89;97825.84;4874829;29;20048;-44
2022/01/13 02:09:35;;;;;;;68.28;25.77;;;;;;;-1.94;87.00;97829.53;4879842;29;20676;-41
2022/01/13 02:12:08;;;;;;;60.15;25.08;;;;;;;-1.75;86.21;97818.06;4865998;29;20045;-45
2022/01/13 02:14:47;;;;;;;65.10;27.38;;;;;;;-1.89;86.26;97821.75;4863490;29;20060;-46
2022/01/13 02:17:23;;;;;;;68.60;26.77;;;;;;;-1.67;85.97;97820.47;4876647;29;20037;-48
2022/01/13 02:19:52;;;;;;;63.75;26.33;;;;;;;-1.52;85.24;97832.72;4863850;29;20042;-50
2022/01/13 02:22:21;;;;;;;65.45;26.33;;;;;;;-1.44;84.66;97827.16;4863069;29;20052;-47
2022/01/13 02:24:48;;;;;;;68.38;26.67;;;;;;;-1.47;84.18;97817.78;4860528;29;20041;-46
2022/01/13 02:27:15;;;;;;;69.55;29.40;;;;;;;-1.58;84.99;97820.28;4861112;29;20061;-44
2022/01/13 02:29:42;;;;;;;68.00;26.20;;;;;;;-1.45;84.45;97817.56;4861409;29;20053;-48
2022/01/13 02:32:10;;;;;;;61.95;25.38;;;;;;;-1.45;84.29;97807.75;4865788;29;20068;-44
2022/01/13 02:34:37;;;;;;;63.10;26.48;;;;;;;-1.39;83.98;97808.78;4878054;29;20055;-41
2022/01/13 02:37:04;;;;;;;63.92;26.50;;;;;;;-1.37;83.92;97820.00;4868559;29;20051;-47
2022/01/13 02:39:31;;;;;;;62.70;27.10;;;;;;;-1.31;83.82;97815.69;4861714;29;20052;-41
2022/01/13 02:42:00;;;;;;;61.55;26.27;;;;;;;-1.95;86.96;97817.25;4865182;29;20081;-41
2022/01/13 02:44:27;;;;;;;62.10;25.83;;;;;;;-1.66;84.79;97798.25;4877860;29;20045;-44
2022/01/13 02:47:07;;;;;;;63.45;25.25;;;;;;;-1.72;85.28;97809.69;4877364;29;20047;-44
2022/01/13 02:49:46;;;;;;;57.80;23.25;;;;;;;-2.96;90.54;97815.53;4879479;29;20045;-42
2022/01/13 02:52:14;;;;;;;60.90;25.63;;;;;;;-3.02;91.43;97813.72;4871716;29;20077;-44
2022/01/13 02:54:41;;;;;;;58.17;25.25;;;;;;;-2.55;90.70;97819.91;4878004;29;20049;-43
2022/01/13 02:57:08;;;;;;;59.05;24.63;;;;;;;-1.90;86.85;97823.59;4866475;29;20547;-44
2022/01/13 02:59:35;;;;;;;64.00;27.25;;;;;;;-1.60;85.30;97820.47;4876678;29;20045;-42
2022/01/13 03:02:02;;;;;;;61.70;25.05;;;;;;;-1.48;84.80;97825.97;4868819;29;20156;-42
2022/01/13 03:04:29;;;;;;;63.50;26.75;;;;;;;-1.54;84.55;97813.50;4875520;29;20045;-43
2022/01/13 03:06:56;;;;;;;60.38;25.40;;;;;;;-1.66;84.85;97829.25;4875385;29;20055;-42
2022/01/13 03:09:23;;;;;;;65.10;25.80;;;;;;;-1.63;85.51;97831.50;4861552;29;20052;-44
2022/01/13 03:11:50;;;;;;;66.03;27.45;;;;;;;-1.40;84.57;97831.03;4876485;29;20050;-42
2022/01/13 03:14:17;;;;;;;61.15;25.08;;;;;;;-1.37;84.32;97830.59;4873687;29;20053;-42
2022/01/13 03:16:45;;;;;;;57.13;25.17;;;;;;;-2.58;88.69;97844.16;4860369;29;20408;-49
2022/01/13 03:19:12;;;;;;;61.10;25.52;;;;;;;-2.24;87.36;97837.91;4860306;29;20116;-48
2022/01/13 03:21:39;;;;;;;63.17;24.67;;;;;;;-2.05;86.48;97841.53;4865433;29;20045;-48
2022/01/13 03:24:10;;;;;;;62.33;25.88;;;;;;;-2.39;86.99;97846.03;4861542;29;20053;-48
2022/01/13 03:26:38;;;;;;;58.30;24.73;;;;;;;-2.95;90.58;97840.22;4878121;29;20650;-42
2022/01/13 03:31:39;;;;;;;68.22;26.60;;;;;;;-1.83;86.87;97839.50;4872809;29;20048;-48
2022/01/13 03:34:06;;;;;;;63.97;24.55;;;;;;;-1.54;85.05;97837.41;4878391;29;20053;-47
2022/01/13 03:36:33;;;;;;;61.50;26.25;;;;;;;-1.65;84.84;97829.06;4877616;29;20048;-48
2022/01/13 03:39:00;;;;;;;58.75;24.90;;;;;;;-1.85;85.81;97820.31;4869611;29;20049;-41
2022/01/13 03:41:27;;;;;;;65.50;26.25;;;;;;;-1.36;83.89;97824.28;4843228;29;20068;-43
2022/01/13 03:43:55;;;;;;;68.43;27.73;;;;;;;-1.31;83.33;97832.44;4876770;29;20396;-42
2022/01/13 03:46:22;;;;;;;62.58;25.15;;;;;;;-1.43;83.31;97821.66;4876496;29;20085;-41
2022/01/13 03:48:49;;;;;;;60.47;26.58;;;;;;;-1.54;83.93;97816.16;4866126;29;20050;-43
2022/01/13 03:51:17;;;;;;;63.22;26.27;;;;;;;-1.61;83.86;97810.88;4877550;29;20045;-42
2022/01/13 03:54:03;;;;;;;67.65;26.27;;;;;;;-1.78;84.60;97821.13;4867580;29;20049;-47
2022/01/13 03:56:42;;;;;;;61.83;25.20;;;;;;;-1.40;83.55;97812.44;4874612;29;20052;-49
2022/01/13 03:59:41;;;;;;;63.50;26.38;;;;;;;-1.46;83.74;97814.13;4878442;29;20037;-45
2022/01/13 04:02:14;;;;;;;61.00;25.73;;;;;;;-1.50;83.31;97818.19;4870557;29;20045;-41
2022/01/13 04:04:48;;;;;;;63.78;25.55;;;;;;;-1.51;83.36;97821.06;4859603;29;20480;-47
2022/01/13 04:07:18;;;;;;;61.50;25.70;;;;;;;-1.63;83.90;97817.41;4866097;29;20041;-51
2022/01/13 04:09:45;;;;;;;60.83;25.02;;;;;;;-1.49;83.11;97809.22;4861344;29;20441;-47
2022/01/13 04:12:14;;;;;;;66.15;25.85;;;;;;;-1.54;83.52;97800.25;4876770;29;20072;-49
2022/01/13 04:14:59;;;;;;;62.28;25.65;;;;;;;-1.66;83.77;97797.41;4876640;29;20056;-47
2022/01/13 04:17:27;;;;;;;66.25;24.50;;;;;;;-2.02;85.81;97803.19;4874752;29;20044;-42
2022/01/13 04:19:55;;;;;;;65.22;25.33;;;;;;;-2.59;88.17;97802.78;4871610;29;20073;-42
2022/01/13 04:22:25;;;;;;;65.47;27.05;;;;;;;-1.89;86.23;97798.69;4863297;29;20048;-48
2022/01/13 04:24:53;;;;;;;60.40;25.10;;;;;;;-1.73;85.50;97805.38;4876256;29;20101;-44
2022/01/13 04:27:28;;;;;;;65.95;26.13;;;;;;;-1.68;84.92;97813.56;4876584;29;20049;-46
2022/01/13 04:32:58;;;;;;;63.10;25.58;;;;;;;-2.06;86.96;97828.50;4837994;29;20132;-43
2022/01/13 04:35:25;;;;;;;66.70;26.13;;;;;;;-1.78;86.00;97834.41;4858485;29;20072;-47
2022/01/13 04:37:52;;;;;;;63.25;27.42;;;;;;;-1.62;84.72;97835.81;4861270;29;20050;-47
2022/01/13 04:40:19;;;;;;;68.55;25.33;;;;;;;-1.47;83.82;97831.03;4860887;29;20045;-46
2022/01/13 04:42:52;;;;;;;63.15;26.15;;;;;;;-2.17;87.33;97828.09;4875994;29;20049;-47
2022/01/13 04:45:20;;;;;;;60.97;25.40;;;;;;;-1.66;86.18;97831.91;4875720;29;20404;-42
2022/01/13 04:47:49;;;;;;;63.33;25.42;;;;;;;-1.77;85.77;97830.72;4858853;29;20050;-46
2022/01/13 04:50:15;;;;;;;62.45;25.65;;;;;;;-1.79;85.61;97824.78;4861257;29;20072;-48
2022/01/13 04:52:42;;;;;;;63.30;26.52;;;;;;;-1.80;85.95;97822.34;4864759;29;20089;-47
2022/01/13 04:55:12;;;;;;;64.18;25.27;;;;;;;-1.68;84.74;97810.91;4877891;29;20049;-46
2022/01/13 04:57:39;;;;;;;62.10;25.48;;;;;;;-2.50;88.75;97806.03;4866498;29;20037;-47
2022/01/13 05:00:09;;;;;;;58.92;24.67;;;;;;;-2.63;89.72;97802.38;4864421;29;20049;-47
2022/01/13 05:02:36;;;;;;;61.95;26.13;;;;;;;-2.40;89.46;97807.28;4859249;29;20625;-47
2022/01/13 05:05:04;;;;;;;63.25;26.00;;;;;;;-1.99;87.36;97813.38;4870980;29;20051;-48
2022/01/13 05:07:33;;;;;;;62.42;24.85;;;;;;;-1.78;85.64;97815.00;4873011;29;20124;-47
2022/01/13 05:10:00;;;;;;;60.03;25.48;;;;;;;-1.91;86.54;97818.50;4872459;29;20046;-47
2022/01/13 05:12:33;;;;;;;61.75;25.88;;;;;;;-1.72;85.49;97809.69;4871970;29;20037;-46
2022/01/13 05:15:04;;;;;;;68.18;28.40;;;;;;;-1.83;85.86;97809.50;4861086;29;20053;-47
2022/01/13 05:18:05;;;;;;;68.85;27.23;;;;;;;-1.82;86.22;97808.47;4869307;29;20045;-47
2022/01/13 05:20:40;;;;;;;64.43;25.75;;;;;;;-1.82;85.84;97825.22;4875851;29;20487;-46
2022/01/13 05:23:11;;;;;;;70.03;27.40;;;;;;;-1.89;86.11;97825.19;4864273;29;20075;-44
2022/01/13 05:25:40;;;;;;;60.85;25.35;;;;;;;-2.03;86.89;97823.59;4878106;29;20055;-46
2022/01/13 05:28:07;;;;;;;61.00;24.75;;;;;;;-1.90;85.83;97828.88;4876159;29;20041;-47
2022/01/13 05:30:34;;;;;;;66.88;25.27;;;;;;;-1.63;84.94;97828.03;4873818;29;20408;-46
2022/01/13 05:33:01;;;;;;;61.05;24.73;;;;;;;-1.56;84.73;97824.34;4862690;29;20423;-45
2022/01/13 05:35:28;;;;;;;69.38;24.58;;;;;;;-2.09;88.02;97818.31;4863399;29;20057;-45
2022/01/13 05:37:55;;;;;;;65.15;26.98;;;;;;;-1.67;85.74;97825.78;4862267;29;20042;-45
2022/01/13 05:40:22;;;;;;;63.13;25.70;;;;;;;-1.51;84.61;97826.38;4864691;29;20412;-45
2022/01/13 05:42:50;;;;;;;63.20;25.48;;;;;;;-1.51;84.41;97837.00;4862162;24;20045;-47
2022/01/13 05:45:19;;;;;;;70.57;25.67;;;;;;;-1.72;85.28;97844.19;4843090;29;20119;-47
2022/01/13 05:47:48;;;;;;;56.40;24.10;;;;;;;-2.25;87.49;97836.25;4842047;29;20057;-48
2022/01/13 05:50:17;;;;;;;58.05;25.40;;;;;;;-2.30;88.37;97825.44;4834453;29;20444;-47
2022/01/13 05:52:44;;;;;;;63.70;25.85;;;;;;;-2.02;88.14;97827.06;4823702;29;20083;-52
2022/01/13 05:55:14;;;;;;;63.08;25.92;;;;;;;-1.74;86.47;97830.31;4816399;29;20074;-49
2022/01/13 05:57:41;;;;;;;64.93;25.75;;;;;;;-1.58;85.47;97830.88;4829554;29;20073;-46
2022/01/13 06:00:11;;;;;;;61.22;25.10;;;;;;;-2.02;88.36;97835.03;4825104;29;20054;-47
2022/01/13 06:02:38;;;;;;;61.25;24.98;;;;;;;-1.59;85.51;97837.19;4822658;29;20068;-48
2022/01/13 06:05:08;;;;;;;60.70;25.70;;;;;;;-1.47;84.26;97843.50;4825046;29;20054;-50
2022/01/13 06:07:35;;;;;;;64.13;25.70;;;;;;;-1.26;84.01;97855.72;4826440;29;20084;-50
2022/01/13 06:10:08;;;;;;;62.03;24.45;;;;;;;-1.29;83.20;97853.47;4826921;29;20056;-49
2022/01/13 06:12:37;;;;;;;62.28;24.33;;;;;;;-1.24;83.03;97861.63;4825956;29;20133;-48
2022/01/13 06:15:14;;;;;;;59.47;23.52;;;;;;;-1.33;83.11;97865.53;4840393;29;20057;-52
2022/01/13 06:17:42;;;;;;;61.50;23.88;;;;;;;-1.31;82.70;97868.78;4823764;29;20047;-50
2022/01/13 06:20:11;;;;;;;57.78;23.35;;;;;;;-1.42;82.81;97856.97;4829823;29;20050;-51
2022/01/13 06:22:39;;;;;;;54.95;23.48;;;;;;;-1.39;83.06;97861.88;4823349;29;20516;-50
2022/01/13 06:25:10;;;;;;;53.47;23.05;;;;;;;-1.43;82.80;97872.09;4818459;29;20038;-48
2022/01/13 06:27:38;;;;;;;58.85;22.80;;;;;;;-1.50;82.77;97876.59;4827665;29;20054;-48
2022/01/13 06:30:07;;;;;;;55.80;21.88;;;;;;;-1.54;82.81;97866.59;4827931;29;20042;-48
2022/01/13 06:32:34;;;;;;;55.50;22.70;;;;;;;-1.53;82.75;97860.25;4823102;29;20058;-52
2022/01/13 06:35:02;;;;;;;58.00;23.85;;;;;;;-1.59;82.82;97869.06;4824297;29;20074;-50
2022/01/13 06:37:29;;;;;;;55.40;23.70;;;;;;;-1.72;83.19;97877.88;4822750;29;20509;-51
2022/01/13 06:39:56;;;;;;;50.65;20.95;;;;;;;-1.66;82.79;97869.91;4823550;29;20043;-46
2022/01/13 06:42:23;;;;;;;53.95;22.33;;;;;;;-1.60;82.71;97875.38;4836165;29;20050;-47
2022/01/13 06:44:50;;;;;;;51.67;21.52;;;;;;;-1.74;83.13;97885.22;4824481;29;20070;-45
2022/01/13 06:47:16;;;;;;;54.15;21.50;;;;;;;-1.90;83.60;97881.94;4822875;29;20137;-47
2022/01/13 06:49:44;;;;;;;54.08;21.92;;;;;;;-1.94;83.22;97883.38;4824128;29;20508;-52
2022/01/13 06:52:13;;;;;;;59.67;22.20;;;;;;;-1.99;83.28;97874.41;4817834;29;20475;-53
2022/01/13 06:54:40;;;;;;;51.03;21.38;;;;;;;-2.05;83.49;97877.88;4829271;29;20078;-49
2022/01/13 06:57:07;;;;;;;52.08;21.63;;;;;;;-2.10;83.72;97875.03;4825752;29;20085;-50
2022/01/13 06:59:33;;;;;;;52.03;22.13;;;;;;;-2.11;83.36;97879.53;4824874;29;20053;-50
2022/01/13 07:02:01;;;;;;;52.28;20.63;;;;;;;-2.08;83.14;97886.22;4828734;29;20084;-49
2022/01/13 07:04:29;;;;;;;50.50;21.20;;;;;;;-2.13;83.40;97887.66;4824933;29;20156;-51
2022/01/13 07:06:56;;;;;;;51.53;21.40;;;;;;;-2.06;82.97;97879.72;4824143;29;20050;-48
2022/01/13 07:09:23;;;;;;;52.15;21.77;;;;;;;-2.03;82.76;97889.09;4812048;29;20049;-48
2022/01/13 07:11:51;;;;;;;53.08;21.55;;;;;;;-2.01;82.52;97882.56;4824458;29;20145;-54
2022/01/13 07:14:18;;;;;;;49.15;20.70;;;;;;;-2.05;83.00;97883.16;4824054;29;20129;-46
2022/01/13 07:16:46;;;;;;;49.22;20.67;;;;;;;-2.03;82.78;97876.66;4821528;29;20134;-48
2022/01/13 07:19:15;;;;;;;49.58;20.10;;;;;;;-2.12;83.13;97894.59;4804574;29;20058;-45
2022/01/13 07:21:44;;;;;;;49.40;20.92;;;;;;;-2.08;83.13;97888.88;4805702;29;20060;-49
2022/01/13 07:24:11;;;;;;;49.58;20.83;;;;;;;-3.30;88.32;97893.22;4804369;29;20053;-46
2022/01/13 07:26:39;;;;;;;43.70;20.10;;;;;;;-2.73;87.61;97910.59;4805352;29;20417;-47
2022/01/13 07:29:07;;;;;;;45.88;19.15;;;;;;;-2.50;86.37;97906.75;4823549;29;20042;-51
2022/01/13 07:31:36;;;;;;;47.92;20.20;;;;;;;-2.74;86.46;97901.00;4819767;29;20051;-48
2022/01/13 07:34:03;;;;;;;48.22;20.70;;;;;;;-2.05;83.91;97904.38;4822448;29;20046;-49
2022/01/13 07:36:30;;;;;;;48.17;20.67;;;;;;;-1.90;82.73;97903.16;4823290;29;20046;-48
2022/01/13 07:38:57;;;;;;;49.60;20.58;;;;;;;-1.93;82.43;97900.13;4820934;29;20046;-48
2022/01/13 07:41:24;;;;;;;50.30;21.83;;;;;;;-2.29;82.98;97882.75;4806245;29;20104;-53
2022/01/13 07:43:54;;;;;;;48.00;21.17;;;;;;;-2.12;82.97;97899.06;4822031;29;20116;-48
2022/01/13 07:46:23;;;;;;;50.35;21.00;;;;;;;-2.68;85.39;97900.19;4822608;29;20054;-52
2022/01/13 07:48:51;;;;;;;48.13;19.73;;;;;;;-2.40;84.67;97909.88;4822022;29;20046;-48
2022/01/13 07:51:18;;;;;;;50.33;21.30;;;;;;;-2.06;82.79;97908.88;4822837;29;20065;-48
2022/01/13 07:53:45;;;;;;;51.35;19.77;;;;;;;-2.12;82.48;97899.88;4821203;29;20046;-47
2022/01/13 07:56:12;;;;;;;48.00;20.83;;;;;;;-2.02;82.17;97898.69;4838071;29;20054;-53
2022/01/13 07:58:41;;;;;;;49.60;20.27;;;;;;;-2.04;82.54;97901.53;4826437;29;20050;-51
2022/01/13 08:01:08;;;;;;;48.25;21.05;;;;;;;-1.85;82.03;97904.38;4816916;29;20054;-47
2022/01/13 08:03:35;;;;;;;48.28;21.73;;;;;;;-1.95;82.25;97907.44;4820809;29;20056;-49
2022/01/13 08:06:04;;;;;;;52.53;21.88;;;;;;;-1.95;82.53;97904.78;4818016;29;20058;-47
2022/01/13 08:08:32;;;;;;;49.13;20.27;;;;;;;-2.03;82.36;97912.97;4821047;29;20042;-51
2022/01/13 08:10:59;;;;;;;48.95;21.38;;;;;;;-1.90;82.16;97905.00;4824443;29;20119;-53
2022/01/13 08:13:26;;;;;;;47.13;18.98;;;;;;;-1.90;82.27;97908.47;4824166;29;20059;-48
2022/01/13 08:15:58;;;;;;;49.25;20.38;;;;;;;-1.95;82.46;97912.75;4838927;29;20061;-53
2022/01/13 08:21:11;;;;;;;51.08;21.17;;;;;;;-1.84;82.39;97917.47;4817626;29;20485;-53
2022/01/13 08:23:39;;;;;;;52.95;20.67;;;;;;;-1.86;82.19;97908.06;4822379;29;20042;-51
2022/01/13 08:26:06;;;;;;;51.65;20.73;;;;;;;-2.02;82.76;97910.09;4823139;29;20454;-48
2022/01/13 08:28:33;;;;;;;49.75;21.15;;;;;;;-1.90;82.32;97915.63;4822027;29;20137;-46
2022/01/13 08:31:00;;;;;;;51.30;20.25;;;;;;;-1.80;82.03;97916.03;4824675;29;20048;-54
2022/01/13 08:33:28;;;;;;;55.17;21.58;;;;;;;-1.92;82.90;97915.84;4811006;29;20046;-50
2022/01/13 08:35:58;;;;;;;50.45;21.33;;;;;;;-1.75;82.03;97916.25;4819630;29;20103;-50
2022/01/13 08:38:25;;;;;;;54.42;22.00;;;;;;;-1.60;81.92;97917.84;4822588;29;20432;-48
2022/01/13 08:40:59;;;;;;;49.75;21.20;;;;;;;-1.70;81.60;97923.59;4820104;29;20428;-50
2022/01/13 08:43:28;;;;;;;47.70;20.13;;;;;;;-2.59;86.72;97922.84;4806532;29;20053;-49
2022/01/13 08:45:55;;;;;;;53.35;20.67;;;;;;;-1.78;83.34;97919.31;4824241;29;20054;-51
2022/01/13 08:48:23;;;;;;;46.58;20.88;;;;;;;-2.64;86.93;97932.41;4821440;29;20137;-52
2022/01/13 08:50:50;;;;;;;51.03;22.60;;;;;;;-2.71;87.33;97935.03;4830429;29;20493;-50
2022/01/13 08:53:19;;;;;;;48.28;20.58;;;;;;;-2.31;85.82;97929.84;4822763;29;20053;-53
2022/01/13 08:55:46;;;;;;;48.20;21.73;;;;;;;-1.86;84.61;97924.81;4818203;29;20053;-52
2022/01/13 08:58:14;;;;;;;49.92;21.83;;;;;;;-1.40;82.02;97934.56;4823052;29;20556;-49
2022/01/13 09:00:42;;;;;;;50.90;20.92;;;;;;;-1.14;80.59;97933.72;4808024;29;20078;-48
2022/01/13 09:03:09;;;;;;;54.28;23.15;;;;;;;-1.60;81.86;97929.28;4808377;29;20051;-47
2022/01/13 09:05:37;;;;;;;52.35;21.60;;;;;;;-1.16;80.74;97927.00;4824977;29;20073;-46
2022/01/13 09:08:07;;;;;;;52.83;23.30;;;;;;;-1.33;80.55;97940.72;4817875;29;20084;-50
2022/01/13 09:10:33;;;;;;;52.10;22.60;;;;;;;-1.35;81.97;97948.06;4824477;29;20072;-49
2022/01/13 09:13:01;;;;;;;46.92;20.45;;;;;;;-1.06;80.76;97945.97;4826811;29;20059;-52
2022/01/13 09:18:06;;;;;;;54.72;22.85;;;;;;;-1.13;80.29;97937.22;4820601;29;20068;-52
2022/01/13 09:20:33;;;;;;;50.75;21.02;;;;;;;-0.91;79.87;97938.56;4825536;29;20056;-50
2022/01/13 09:23:00;;;;;;;49.92;21.42;;;;;;;-0.87;79.29;97942.44;4804345;29;20054;-50
2022/01/13 09:25:27;;;;;;;51.00;21.63;;;;;;;-0.77;78.84;97945.47;4826154;29;20128;-49
2022/01/13 09:27:54;;;;;;;54.95;21.98;;;;;;;-1.71;81.45;97944.00;4825886;29;20062;-52
2022/01/13 09:30:22;;;;;;;53.50;22.55;;;;;;;-1.34;81.55;97952.34;4824579;29;20487;-52
2022/01/13 09:32:49;;;;;;;46.97;21.45;;;;;;;-1.07;80.89;97960.25;4825692;29;20050;-54
2022/01/13 09:35:16;;;;;;;53.13;21.13;;;;;;;-0.67;79.18;97950.34;4830667;29;20428;-51
2022/01/13 09:37:43;;;;;;;51.05;22.48;;;;;;;-0.60;78.98;97947.66;4842248;29;20045;-48
2022/01/13 09:40:11;;;;;;;53.15;22.77;;;;;;;-1.57;82.09;97951.97;4824815;29;20042;-49
2022/01/13 09:42:40;;;;;;;57.65;21.63;;;;;;;-0.91;81.33;97954.53;4827741;29;20500;-47
2022/01/13 09:45:09;;;;;;;69.75;24.92;;;;;;;-0.73;80.64;97945.84;4824425;29;20051;-51
2022/01/13 09:47:36;;;;;;;50.83;22.42;;;;;;;-0.50;79.70;97945.34;4826690;29;20059;-47
2022/01/13 09:50:10;;;;;;;49.92;21.10;;;;;;;-0.38;79.58;97954.28;4819127;29;20050;-50
2022/01/13 09:52:38;;;;;;;51.58;21.85;;;;;;;-0.53;78.90;97957.22;4817711;29;20055;-50
2022/01/13 09:55:07;;;;;;;52.00;22.58;;;;;;;-0.40;78.76;97956.34;4820586;29;20552;-49
2022/01/13 09:57:35;;;;;;;52.47;21.75;;;;;;;-0.99;79.17;97960.84;4819945;29;20047;-49
2022/01/13 10:00:04;;;;;;;58.25;22.38;;;;;;;-1.56;81.74;97956.22;4807275;29;20043;-49
2022/01/13 10:02:31;;;;;;;52.03;22.15;;;;;;;-2.03;85.25;97960.72;4822105;29;20136;-53
2022/01/13 10:04:58;;;;;;;53.05;22.45;;;;;;;-1.18;82.38;97957.22;4825386;29;20516;-48
2022/01/13 10:07:43;;;;;;;56.72;21.70;;;;;;;-0.79;80.71;97958.13;4826498;29;20035;-52
2022/01/13 10:10:25;;;;;;;54.75;21.60;;;;;;;-0.73;80.22;97953.84;4841528;29;20510;-51
2022/01/13 10:13:10;;;;;;;57.10;21.85;;;;;;;-2.20;84.47;97965.59;4817593;29;20434;-51
2022/01/13 10:18:45;;;;;;;60.10;22.75;;;;;;;-1.62;85.08;97951.78;4806584;29;20049;-50
2022/01/13 10:21:19;;;;;;;55.63;22.17;;;;;;;-1.41;83.69;97952.34;4820365;29;20044;-50
2022/01/13 10:24:06;;;;;;;50.28;22.70;;;;;;;-0.75;80.74;97943.41;4817285;29;20057;-48
2022/01/13 10:26:36;;;;;;;49.67;21.67;;;;;;;-1.66;84.03;97936.25;4824886;29;20042;-48
2022/01/13 10:29:04;;;;;;;50.70;22.63;;;;;;;-1.38;82.65;97940.50;4831550;29;20042;-53
2022/01/13 10:31:51;;;;;;;46.55;21.27;;;;;;;-0.73;80.29;97929.91;4826869;29;20057;-56
2022/01/13 10:34:21;;;;;;;52.15;21.60;;;;;;;-0.44;78.65;97931.22;4817230;29;20047;-52
2022/01/13 10:37:07;;;;;;;49.95;21.05;;;;;;;-0.28;78.28;97921.91;4820305;29;20042;-49
2022/01/13 10:39:54;;;;;;;46.17;23.23;;;;;;;-0.21;77.51;97922.69;4825379;29;20045;-47
2022/01/13 10:45:00;;;;;;;52.67;21.23;;;;;;;-0.59;77.78;97926.16;4823499;29;20047;-49
2022/01/13 10:47:28;;;;;;;48.70;21.65;;;;;;;-1.51;81.73;97912.13;4820254;29;20074;-49
2022/01/13 10:50:01;;;;;;;48.65;21.23;;;;;;;-0.63;80.05;97913.50;4814875;29;20350;-48
2022/01/13 10:52:28;;;;;;;44.85;20.67;;;;;;;-0.69;78.60;97917.00;4809586;29;20049;-54
2022/01/13 10:55:00;;;;;;;45.97;21.48;;;;;;;-0.65;78.79;97911.06;4813930;29;20057;-53
2022/01/13 10:57:29;;;;;;;45.15;19.75;;;;;;;-0.34;79.01;97907.63;4822707;29;20071;-51
2022/01/13 10:59:57;;;;;;;47.30;19.92;;;;;;;-0.96;80.12;97904.66;4824022;29;20042;-51
2022/01/13 11:02:25;;;;;;;48.67;20.48;;;;;;;-0.38;79.17;97905.63;4810493;29;20089;-52
2022/01/13 11:04:53;;;;;;;47.65;19.75;;;;;;;-0.10;78.13;97902.56;4824007;29;20050;-49
2022/01/13 11:07:25;;;;;;;47.38;21.08;;;;;;;-0.69;79.25;97912.50;4821672;29;20047;-50
2022/01/13 11:09:58;;;;;;;42.42;19.67;;;;;;;-0.07;78.53;97902.13;4822466;29;20045;-50
2022/01/13 11:12:41;;;;;;;47.47;21.17;;;;;;;-0.05;78.29;97902.72;4823798;29;20095;-47
2022/01/13 11:15:13;;;;;;;47.25;21.13;;;;;;;-0.52;78.53;97895.06;4823550;29;20084;-49
2022/01/13 11:17:43;;;;;;;43.78;19.08;;;;;;;0.01;78.33;97893.88;4823676;29;20053;-53
2022/01/13 11:20:17;;;;;;;42.65;18.67;;;;;;;-0.01;77.51;97875.47;4811852;29;20074;-54
2022/01/13 11:22:46;;;;;;;44.95;18.67;;;;;;;0.53;77.01;97875.00;4809671;29;20083;-51
2022/01/13 11:25:16;;;;;;;40.50;20.08;;;;;;;0.74;75.80;97866.56;4819255;29;20528;-51
2022/01/13 11:27:44;;;;;;;45.63;21.73;;;;;;;1.05;74.46;97862.97;4813917;29;20051;-54
2022/01/13 11:30:22;;;;;;;44.58;20.52;;;;;;;1.64;72.49;97861.34;4818238;29;20141;-54
2022/01/13 11:32:50;;;;;;;46.58;19.45;;;;;;;2.71;70.19;97854.25;4817878;29;20049;-46
2022/01/13 11:35:30;;;;;;;38.85;17.08;;;;;;;2.81;67.76;97817.03;5069114;28;20380;-49
2022/01/13 11:38:06;;;;;;;40.97;18.50;;;;;;;3.33;66.61;97846.41;5060737;28;20043;-48
2022/01/13 11:40:40;;;;;;;43.47;19.13;;;;;;;3.48;65.56;97851.25;5047343;28;20094;-53
2022/01/13 11:43:23;;;;;;;38.72;17.80;;;;;;;3.63;62.94;97864.91;5069205;28;20045;-52
2022/01/13 11:45:52;;;;;;;41.75;17.88;;;;;;;3.24;62.29;97864.69;5044655;28;20498;-51
2022/01/13 11:48:29;;;;;;;37.95;18.50;;;;;;;1.63;67.90;97870.41;5031698;28;20053;-53
2022/01/13 11:51:16;;;;;;;38.35;19.05;;;;;;;3.07;67.42;97857.66;5037801;28;20053;-51